Time;durP1;ratioP1;P1;durP2;ratioP2;P2;SDS_P1;SDS_P2;PMS_P1;PMS_P2;Temp;Humidity;BMP_temperature;BMP_pressure;BME280_temperature;BME280_humidity;BME280_pressure;Samples;Min_cycle;Max_cycle;Signal;HPM_P1;HPM_P2
2023/06/11 00:00:09;;;;;;;9.68;8.50;;;;;;;17.75;100.00;100195.56;1680559;85;21017;-64
2023/06/11 00:02:41;;;;;;;11.93;8.80;;;;;;;17.75;100.00;100201.11;1680959;85;21072;-61
2023/06/11 00:05:09;;;;;;;10.63;8.38;;;;;;;17.77;100.00;100197.54;1680870;85;21040;-62
2023/06/11 00:07:38;;;;;;;12.88;9.25;;;;;;;17.76;100.00;100201.95;1680833;85;21051;-61
2023/06/11 00:10:08;;;;;;;14.23;8.40;;;;;;;17.72;100.00;100208.53;1680937;85;21112;-61
2023/06/11 00:12:36;;;;;;;11.73;8.40;;;;;;;17.71;100.00;100201.31;1680855;85;21513;-62
2023/06/11 00:15:07;;;;;;;11.48;7.30;;;;;;;17.68;100.00;100209.58;1652923;85;21574;-61
2023/06/11 00:17:36;;;;;;;9.53;7.10;;;;;;;17.66;100.00;100204.83;1645406;87;21077;-61
2023/06/11 00:20:11;;;;;;;10.88;7.90;;;;;;;17.60;100.00;100198.86;1645631;87;21090;-60
2023/06/11 00:22:39;;;;;;;10.70;6.85;;;;;;;17.57;100.00;100204.06;1647455;86;21080;-62
2023/06/11 00:25:09;;;;;;;10.35;7.03;;;;;;;17.51;100.00;100207.80;1647462;87;21080;-61
2023/06/11 00:27:38;;;;;;;9.00;6.22;;;;;;;17.44;100.00;100208.78;1647629;86;21097;-61
2023/06/11 00:30:07;;;;;;;9.25;6.45;;;;;;;17.42;100.00;100209.58;1647284;86;21101;-61
2023/06/11 00:32:37;;;;;;;8.90;6.28;;;;;;;17.39;100.00;100203.14;1646595;87;21026;-61
2023/06/11 00:35:08;;;;;;;10.70;7.25;;;;;;;17.33;100.00;100206.91;1645583;87;21029;-61
2023/06/11 00:37:38;;;;;;;9.00;6.25;;;;;;;17.30;100.00;100211.55;1645384;86;21084;-62
2023/06/11 00:40:09;;;;;;;8.30;6.70;;;;;;;17.28;100.00;100209.57;1613501;88;21084;-61
2023/06/11 00:42:38;;;;;;;8.43;6.10;;;;;;;17.24;100.00;100207.00;1613306;89;21152;-61
2023/06/11 00:45:08;;;;;;;10.53;6.40;;;;;;;17.25;100.00;100210.61;1644981;86;21595;-61
2023/06/11 00:47:39;;;;;;;8.58;5.58;;;;;;;17.23;100.00;100209.47;1645571;87;21093;-63
2023/06/11 00:50:08;;;;;;;10.40;6.40;;;;;;;17.22;100.00;100212.48;1645650;86;21116;-60
2023/06/11 00:52:37;;;;;;;9.93;6.55;;;;;;;17.20;100.00;100214.12;1645557;86;21148;-61
2023/06/11 00:55:07;;;;;;;10.03;6.00;;;;;;;17.18;100.00;100213.52;1645478;87;21065;-60
2023/06/11 00:57:43;;;;;;;10.28;6.12;;;;;;;17.17;100.00;100213.77;1645386;87;21061;-62
2023/06/11 01:00:13;;;;;;;8.68;5.87;;;;;;;17.17;100.00;100217.92;1647842;87;21081;-61
2023/06/11 01:02:53;;;;;;;11.20;6.22;;;;;;;17.15;100.00;100214.02;1627635;87;21084;-61
2023/06/11 01:05:22;;;;;;;10.00;6.25;;;;;;;17.15;100.00;100222.86;1645745;86;21553;-62
2023/06/11 01:07:51;;;;;;;8.08;6.12;;;;;;;17.13;100.00;100228.64;1645398;87;21035;-60
2023/06/11 01:10:22;;;;;;;10.30;5.60;;;;;;;17.10;100.00;100221.67;1643138;86;21457;-62
2023/06/11 01:12:52;;;;;;;7.22;5.75;;;;;;;17.07;100.00;100228.23;1645704;87;21053;-62
2023/06/11 01:15:21;;;;;;;8.33;5.30;;;;;;;17.02;100.00;100234.52;1641624;86;21066;-61
2023/06/11 01:17:57;;;;;;;8.93;5.50;;;;;;;17.00;100.00;100234.45;1646060;86;21014;-63
2023/06/11 01:20:34;;;;;;;6.80;5.70;;;;;;;17.01;100.00;100243.90;1634015;87;21006;-62
2023/06/11 01:23:35;;;;;;;7.37;5.53;;;;;;;16.99;100.00;100247.45;1649642;85;21074;-61
2023/06/11 01:26:18;;;;;;;9.80;5.70;;;;;;;16.93;100.00;100244.27;1617740;89;21136;-60
2023/06/11 01:28:51;;;;;;;8.78;5.10;;;;;;;16.89;100.00;100236.67;1650276;87;21010;-61
2023/06/11 01:31:19;;;;;;;7.83;5.00;;;;;;;16.86;100.00;100247.69;1649889;87;21078;-61
2023/06/11 01:33:48;;;;;;;9.18;5.22;;;;;;;16.82;100.00;100247.88;1650119;87;21122;-61
2023/06/11 01:36:19;;;;;;;8.40;4.95;;;;;;;16.82;100.00;100245.64;1649689;86;21094;-61
2023/06/11 01:38:51;;;;;;;8.95;5.50;;;;;;;16.75;99.29;100248.54;1649816;85;21483;-61
2023/06/11 01:41:19;;;;;;;8.68;4.75;;;;;;;16.72;99.36;100247.64;1649097;86;21019;-61
2023/06/11 01:43:48;;;;;;;6.33;4.50;;;;;;;16.72;99.26;100255.94;1649970;86;21042;-61
2023/06/11 01:46:17;;;;;;;9.60;4.25;;;;;;;16.71;98.61;100265.33;1649831;86;21050;-61
2023/06/11 01:48:46;;;;;;;5.17;4.10;;;;;;;16.65;97.78;100260.22;1649767;87;21046;-62
2023/06/11 01:51:17;;;;;;;7.58;4.10;;;;;;;16.59;97.59;100265.84;1649852;87;21474;-61
2023/06/11 01:53:46;;;;;;;6.42;4.33;;;;;;;16.53;96.74;100264.03;1649850;87;21019;-61
2023/06/11 01:56:15;;;;;;;5.37;3.90;;;;;;;16.53;96.85;100264.03;1649896;87;21028;-61
2023/06/11 01:58:45;;;;;;;9.53;4.33;;;;;;;16.49;95.95;100274.73;1649849;86;21058;-60
2023/06/11 02:01:14;;;;;;;7.28;4.22;;;;;;;16.45;96.35;100277.14;1649945;86;21066;-63
2023/06/11 02:03:43;;;;;;;6.00;4.10;;;;;;;16.44;96.48;100274.06;1650049;87;21034;-60
2023/06/11 02:06:13;;;;;;;7.83;4.30;;;;;;;16.45;96.38;100272.14;1649960;86;21054;-61
2023/06/11 02:08:43;;;;;;;5.95;4.08;;;;;;;16.44;96.21;100274.06;1649865;87;21152;-61
2023/06/11 02:11:11;;;;;;;7.08;4.53;;;;;;;16.46;96.50;100271.91;1649474;87;21110;-61
2023/06/11 02:13:40;;;;;;;8.43;3.90;;;;;;;16.49;96.50;100278.88;1649862;87;21105;-62
2023/06/11 02:16:10;;;;;;;5.30;3.90;;;;;;;16.50;96.27;100270.89;1645599;85;21121;-61
2023/06/11 02:18:40;;;;;;;6.33;3.70;;;;;;;16.47;95.84;100277.73;1643585;87;21065;-61
2023/06/11 02:21:08;;;;;;;7.72;3.85;;;;;;;16.46;95.55;100279.36;1613167;89;21077;-61
2023/06/11 02:23:37;;;;;;;6.90;4.22;;;;;;;16.45;95.28;100281.83;1569870;91;21057;-61
2023/06/11 02:26:05;;;;;;;8.45;3.95;;;;;;;16.42;94.94;100278.16;1639283;87;21105;-62
2023/06/11 02:28:34;;;;;;;6.90;4.20;;;;;;;16.39;94.52;100278.63;1645404;87;21049;-61
2023/06/11 02:31:03;;;;;;;7.33;4.50;;;;;;;16.38;94.69;100283.32;1645912;87;21017;-62
2023/06/11 02:33:34;;;;;;;6.97;4.00;;;;;;;16.38;94.09;100282.48;1645269;87;21485;-61
2023/06/11 02:36:04;;;;;;;6.58;3.85;;;;;;;16.35;93.78;100277.42;1645566;87;21010;-61
2023/06/11 02:38:33;;;;;;;6.53;4.00;;;;;;;16.33;93.55;100286.50;1645592;86;21468;-60
2023/06/11 02:41:02;;;;;;;5.65;3.67;;;;;;;16.29;93.50;100290.28;1645025;87;21073;-62
2023/06/11 02:43:32;;;;;;;6.62;3.80;;;;;;;16.26;93.51;100290.76;1645474;86;21053;-61
2023/06/11 02:46:00;;;;;;;4.53;3.25;;;;;;;16.24;93.16;100296.19;1645478;86;21065;-61
2023/06/11 02:48:30;;;;;;;8.50;3.80;;;;;;;16.18;92.39;100300.75;1645494;87;21052;-61
2023/06/11 02:50:58;;;;;;;7.42;3.77;;;;;;;16.12;91.85;100304.45;1645324;87;21021;-60
2023/06/11 02:53:27;;;;;;;6.00;3.33;;;;;;;16.09;91.92;100296.09;1645298;86;21137;-61
2023/06/11 02:55:56;;;;;;;7.62;3.52;;;;;;;16.10;92.20;100290.88;1645492;86;21065;-60
2023/06/11 02:58:25;;;;;;;5.22;3.70;;;;;;;16.10;91.42;100302.47;1613124;88;21099;-62
2023/06/11 03:00:54;;;;;;;5.03;3.70;;;;;;;16.07;91.34;100299.64;1645425;87;21096;-61
2023/06/11 03:03:23;;;;;;;35.98;4.37;;;;;;;16.08;91.78;100294.41;1645432;87;21053;-62
2023/06/11 03:05:53;;;;;;;8.28;3.40;;;;;;;16.06;90.88;100303.48;1640875;86;21184;-60
2023/06/11 03:08:21;;;;;;;8.03;3.67;;;;;;;16.07;91.21;100298.80;1642571;87;21115;-61
2023/06/11 03:10:50;;;;;;;6.28;3.52;;;;;;;16.07;90.87;100291.34;1645639;86;21161;-61
2023/06/11 03:13:20;;;;;;;4.97;3.55;;;;;;;16.07;91.04;100304.33;1645401;87;21057;-63
2023/06/11 03:15:50;;;;;;;6.03;3.42;;;;;;;16.07;91.36;100298.25;1644398;86;21580;-61
2023/06/11 03:18:20;;;;;;;5.33;3.35;;;;;;;16.04;90.70;100302.88;1649552;86;21125;-61
2023/06/11 03:20:48;;;;;;;6.40;3.52;;;;;;;16.01;89.94;100298.36;1650007;86;21062;-62
2023/06/11 03:23:17;;;;;;;6.35;3.35;;;;;;;15.98;90.01;100305.20;1653258;87;21070;-61
2023/06/11 03:25:45;;;;;;;4.60;3.08;;;;;;;15.99;90.10;100305.50;1649649;86;21082;-61
2023/06/11 03:28:14;;;;;;;6.72;3.42;;;;;;;15.96;89.31;100308.73;1649713;87;21058;-60
2023/06/11 03:30:44;;;;;;;5.17;3.20;;;;;;;15.94;89.30;100297.61;1649717;86;21070;-61
2023/06/11 03:33:13;;;;;;;5.12;3.08;;;;;;;15.93;89.65;100306.45;1649579;87;21093;-62
2023/06/11 03:35:44;;;;;;;5.08;3.35;;;;;;;15.93;89.24;100306.45;1649856;87;21104;-61
2023/06/11 03:38:14;;;;;;;5.85;3.35;;;;;;;15.93;89.21;100308.37;1650064;87;21090;-62
2023/06/11 03:40:43;;;;;;;3.92;3.02;;;;;;;15.90;88.77;100300.55;1650397;87;21031;-61
2023/06/11 03:43:11;;;;;;;5.67;3.05;;;;;;;15.90;88.68;100295.86;1652385;86;21066;-62
2023/06/11 03:45:40;;;;;;;7.30;3.25;;;;;;;15.86;87.38;100319.52;1652139;87;21078;-60
2023/06/11 03:48:09;;;;;;;8.10;3.75;;;;;;;15.80;87.41;100308.86;1651808;87;21041;-62
2023/06/11 03:50:38;;;;;;;4.10;2.95;;;;;;;15.77;87.63;100305.72;1651371;87;21042;-62
2023/06/11 03:53:07;;;;;;;6.47;3.22;;;;;;;15.74;87.46;100307.58;1650387;86;21002;-61
2023/06/11 03:55:36;;;;;;;5.05;3.15;;;;;;;15.71;87.30;100311.64;1649959;86;21018;-62
2023/06/11 03:58:06;;;;;;;5.78;2.92;;;;;;;15.71;87.51;100304.73;1653367;87;21078;-62
2023/06/11 04:00:35;;;;;;;6.53;3.05;;;;;;;15.73;87.69;100308.65;1649867;86;21054;-61
2023/06/11 04:03:04;;;;;;;7.62;2.90;;;;;;;15.75;87.96;100314.25;1649932;86;21014;-61
2023/06/11 04:05:36;;;;;;;5.42;2.90;;;;;;;15.75;87.31;100314.78;1653375;86;21121;-62
2023/06/11 04:08:06;;;;;;;8.28;3.27;;;;;;;15.70;87.23;100307.20;1647693;86;21038;-61
2023/06/11 04:10:34;;;;;;;5.25;2.80;;;;;;;15.71;87.04;100305.28;1649802;87;21111;-63
2023/06/11 04:13:04;;;;;;;7.45;2.95;;;;;;;15.71;86.71;100303.89;1648069;87;21101;-62
2023/06/11 04:15:33;;;;;;;5.12;2.67;;;;;;;15.72;86.37;100305.59;1647887;84;21105;-61
2023/06/11 04:18:04;;;;;;;6.60;3.00;;;;;;;15.70;85.87;100301.67;1645345;87;21066;-61
2023/06/11 04:20:33;;;;;;;3.17;2.33;;;;;;;15.70;85.55;100288.40;1645464;87;21077;-62
2023/06/11 04:23:03;;;;;;;6.28;2.90;;;;;;;15.69;84.99;100301.37;1613175;89;21140;-62
2023/06/11 04:25:31;;;;;;;6.70;3.15;;;;;;;15.68;85.07;100298.84;1597886;90;21102;-60
2023/06/11 04:28:01;;;;;;;4.10;3.00;;;;;;;15.66;84.46;100302.38;1597917;90;21109;-61
2023/06/11 04:30:31;;;;;;;7.20;2.95;;;;;;;15.66;84.80;100298.23;1597853;90;21114;-62
2023/06/11 04:33:03;;;;;;;6.78;3.08;;;;;;;15.65;84.52;100296.55;1613364;88;21095;-62
2023/06/11 04:35:34;;;;;;;6.33;2.80;;;;;;;15.64;84.94;100299.84;1597739;89;21570;-61
2023/06/11 04:38:04;;;;;;;5.37;2.92;;;;;;;15.65;84.09;100308.44;1600764;89;21525;-62
2023/06/11 04:40:36;;;;;;;4.30;2.75;;;;;;;15.65;84.17;100307.05;1613579;89;21157;-61
2023/06/11 04:43:06;;;;;;;4.92;2.75;;;;;;;15.68;84.27;100326.47;1597738;90;21103;-62
2023/06/11 04:45:36;;;;;;;7.65;2.67;;;;;;;15.70;84.02;100322.93;1613552;89;21096;-62
2023/06/11 04:48:05;;;;;;;4.05;2.50;;;;;;;15.75;83.81;100322.53;1597730;89;21090;-62
2023/06/11 04:50:37;;;;;;;6.67;2.80;;;;;;;15.77;83.67;100325.91;1613559;89;21016;-62
2023/06/11 04:53:07;;;;;;;3.15;2.50;;;;;;;15.78;82.92;100329.52;1589020;90;21071;-60
2023/06/11 04:55:38;;;;;;;3.85;2.25;;;;;;;15.77;82.45;100339.72;1613332;89;21075;-62
2023/06/11 04:58:09;;;;;;;5.85;2.27;;;;;;;15.76;81.64;100342.72;1597841;89;21077;-62
2023/06/11 05:00:37;;;;;;;5.78;2.62;;;;;;;15.75;81.72;100337.73;1597842;90;21104;-62
2023/06/11 05:03:06;;;;;;;6.25;2.92;;;;;;;15.76;81.83;100339.41;1597612;90;21070;-60
2023/06/11 05:05:35;;;;;;;4.08;2.27;;;;;;;15.75;81.04;100343.79;1597889;90;21090;-60
2023/06/11 05:08:05;;;;;;;3.83;2.50;;;;;;;15.74;81.24;100347.62;1613520;89;21518;-61
2023/06/11 05:10:37;;;;;;;3.65;2.60;;;;;;;15.72;81.03;100349.78;1645289;87;21073;-61
2023/06/11 05:13:07;;;;;;;5.83;2.90;;;;;;;15.70;81.19;100354.16;1644938;87;21069;-62
2023/06/11 05:15:35;;;;;;;4.92;2.85;;;;;;;15.65;80.92;100360.92;1652189;85;21076;-61
2023/06/11 05:18:04;;;;;;;4.03;2.87;;;;;;;15.59;81.24;100359.05;1681170;85;21060;-60
2023/06/11 05:20:35;;;;;;;5.12;2.70;;;;;;;15.59;81.91;100360.44;1661397;85;21140;-60
2023/06/11 05:23:04;;;;;;;5.65;2.75;;;;;;;15.58;81.51;100361.50;1679481;85;21175;-62
2023/06/11 05:25:35;;;;;;;3.92;2.60;;;;;;;15.58;81.28;100346.86;1680520;85;21044;-63
2023/06/11 05:28:07;;;;;;;5.40;3.05;;;;;;;15.57;81.22;100358.95;1680862;85;21005;-62
2023/06/11 05:30:37;;;;;;;5.17;2.60;;;;;;;15.62;81.39;100361.92;1681154;85;21080;-61
2023/06/11 05:33:08;;;;;;;5.15;2.50;;;;;;;15.65;81.39;100368.36;1680779;85;21068;-60
2023/06/11 05:35:38;;;;;;;4.53;2.30;;;;;;;15.65;80.79;100373.34;1680899;85;21072;-61
2023/06/11 05:38:06;;;;;;;4.28;2.70;;;;;;;15.66;80.33;100376.95;1680829;85;21084;-61
2023/06/11 05:40:39;;;;;;;5.92;2.47;;;;;;;15.63;79.92;100370.52;1680586;85;21460;-62
2023/06/11 05:43:08;;;;;;;4.90;2.50;;;;;;;15.64;79.96;100384.09;1681255;85;21048;-61
2023/06/11 05:45:37;;;;;;;7.90;2.87;;;;;;;15.62;79.78;100384.02;1681200;85;21092;-63
2023/06/11 05:48:06;;;;;;;5.50;2.20;;;;;;;15.62;79.94;100381.25;1680490;85;20997;-61
2023/06/11 05:50:36;;;;;;;5.40;2.10;;;;;;;15.62;79.68;100379.87;1680755;85;21340;-61
2023/06/11 05:53:05;;;;;;;5.95;2.35;;;;;;;15.61;79.60;100380.41;1681018;85;21001;-62
2023/06/11 05:55:35;;;;;;;4.83;2.67;;;;;;;15.58;79.24;100384.14;1680963;85;21048;-61
2023/06/11 05:58:04;;;;;;;9.45;2.77;;;;;;;15.54;79.50;100383.19;1680746;85;21183;-63
2023/06/11 06:00:33;;;;;;;3.17;2.50;;;;;;;15.55;79.58;100381.27;1680817;85;21017;-61
2023/06/11 06:03:04;;;;;;;5.37;2.47;;;;;;;15.54;79.54;100385.95;1680872;85;21084;-61
2023/06/11 06:05:34;;;;;;;7.28;2.50;;;;;;;15.54;79.55;100389.25;1680936;85;21552;-62
2023/06/11 06:08:03;;;;;;;5.05;1.90;;;;;;;15.54;78.90;100390.63;1680667;85;21064;-60
2023/06/11 06:10:31;;;;;;;3.33;1.90;;;;;;;15.48;78.07;100385.49;1680838;85;21037;-61
2023/06/11 06:13:00;;;;;;;6.10;2.25;;;;;;;15.42;78.22;100389.17;1681147;85;21087;-61
2023/06/11 06:15:30;;;;;;;4.87;2.27;;;;;;;15.37;77.56;100395.92;1680135;85;21818;-61
2023/06/11 06:17:58;;;;;;;5.15;2.10;;;;;;;15.31;77.42;100409.26;1679750;85;21048;-61
2023/06/11 06:20:30;;;;;;;3.75;1.90;;;;;;;15.24;77.46;100407.11;1679471;85;21493;-61
2023/06/11 06:22:58;;;;;;;4.75;2.20;;;;;;;15.16;76.85;100411.54;1681021;85;21041;-60
2023/06/11 06:25:27;;;;;;;3.20;2.02;;;;;;;15.06;76.81;100418.11;1681023;85;21025;-63
2023/06/11 06:27:56;;;;;;;6.00;1.90;;;;;;;15.01;77.44;100409.67;1680874;85;21073;-64
2023/06/11 06:30:24;;;;;;;4.75;1.90;;;;;;;14.97;77.27;100404.30;1681072;85;21065;-61
2023/06/11 06:32:54;;;;;;;5.28;1.90;;;;;;;14.90;77.55;100412.61;1681010;85;21088;-63
2023/06/11 06:35:32;;;;;;;6.75;2.77;;;;;;;14.87;78.04;100405.63;1680669;85;21108;-62
2023/06/11 06:38:02;;;;;;;6.00;1.95;;;;;;;14.90;78.32;100407.09;1680572;85;21060;-61
2023/06/11 06:40:31;;;;;;;4.37;1.85;;;;;;;14.90;78.45;100411.23;1680835;85;21104;-62
2023/06/11 06:43:00;;;;;;;5.65;1.92;;;;;;;14.91;78.27;100415.67;1681124;85;21503;-62
2023/06/11 06:45:38;;;;;;;4.05;1.70;;;;;;;14.88;78.20;100425.24;1681180;85;21056;-61
2023/06/11 06:48:08;;;;;;;4.50;1.92;;;;;;;14.86;78.32;100421.02;1680223;85;21060;-61
2023/06/11 06:50:37;;;;;;;4.58;1.90;;;;;;;14.83;77.68;100416.80;1680597;85;21060;-60
2023/06/11 06:53:06;;;;;;;2.67;1.60;;;;;;;14.78;78.25;100422.69;1655746;85;21061;-60
2023/06/11 06:55:35;;;;;;;5.67;1.92;;;;;;;14.75;78.41;100424.51;1681031;85;21068;-60
2023/06/11 06:58:05;;;;;;;2.58;1.70;;;;;;;14.73;77.92;100434.92;1681164;85;21065;-62
2023/06/11 07:00:34;;;;;;;2.70;1.82;;;;;;;14.66;78.16;100441.87;1681249;85;21065;-61
2023/06/11 07:03:03;;;;;;;4.65;1.60;;;;;;;14.64;78.09;100460.55;1683102;85;21073;-62
2023/06/11 07:05:33;;;;;;;9.40;1.85;;;;;;;14.55;78.23;100448.10;1683178;85;21080;-61
2023/06/11 07:08:04;;;;;;;4.45;1.80;;;;;;;14.50;78.75;100446.01;1682839;85;21065;-62
2023/06/11 07:10:33;;;;;;;3.87;1.62;;;;;;;14.50;78.94;100441.03;1681576;85;21084;-61
2023/06/11 07:13:02;;;;;;;4.00;1.75;;;;;;;14.48;79.13;100448.14;1680876;85;21089;-62
2023/06/11 07:15:31;;;;;;;4.80;1.55;;;;;;;14.48;80.11;100447.30;1681160;85;21057;-64
2023/06/11 07:18:00;;;;;;;3.20;1.55;;;;;;;14.46;80.07;100441.16;1680769;85;21088;-62
2023/06/11 07:20:29;;;;;;;3.08;1.50;;;;;;;14.44;79.96;100451.03;1680931;85;21347;-62
2023/06/11 07:23:03;;;;;;;3.30;1.70;;;;;;;14.42;79.97;100446.78;1680950;85;21020;-61
2023/06/11 07:25:31;;;;;;;5.58;1.52;;;;;;;14.36;79.82;100439.39;1656549;85;21501;-62
2023/06/11 07:28:01;;;;;;;3.30;1.70;;;;;;;14.34;80.47;100441.52;1680857;85;21525;-62
2023/06/11 07:30:30;;;;;;;4.97;1.50;;;;;;;14.29;80.97;100461.45;1680955;85;21076;-62
2023/06/11 07:32:59;;;;;;;2.95;1.50;;;;;;;14.27;81.20;100449.80;1680730;85;21045;-64
2023/06/11 07:35:28;;;;;;;3.10;1.40;;;;;;;14.24;81.26;100457.98;1680903;85;21076;-61
2023/06/11 07:37:58;;;;;;;3.20;1.50;;;;;;;14.19;81.11;100451.44;1680828;85;21057;-61
2023/06/11 07:40:28;;;;;;;2.27;1.50;;;;;;;14.10;81.07;100452.22;1680980;85;21065;-62
2023/06/11 07:42:57;;;;;;;2.02;1.35;;;;;;;14.05;81.59;100453.95;1680887;85;21088;-60
2023/06/11 07:45:27;;;;;;;3.60;1.60;;;;;;;14.00;81.40;100456.52;1680924;85;21069;-62
2023/06/11 07:47:56;;;;;;;3.95;1.57;;;;;;;13.98;81.34;100455.89;1681051;85;21017;-60
2023/06/11 07:50:25;;;;;;;3.95;1.45;;;;;;;13.93;81.39;100464.81;1681029;85;21045;-63
2023/06/11 07:52:54;;;;;;;5.60;1.90;;;;;;;13.90;81.50;100456.45;1680930;85;21089;-61
2023/06/11 07:55:24;;;;;;;2.30;1.30;;;;;;;13.91;81.13;100468.31;1680779;85;21076;-63
2023/06/11 07:57:52;;;;;;;4.42;1.60;;;;;;;13.87;80.84;100464.30;1680905;85;21040;-61
2023/06/11 08:00:22;;;;;;;4.70;1.50;;;;;;;13.85;80.65;100460.39;1681051;85;21053;-62
2023/06/11 08:02:50;;;;;;;3.40;1.40;;;;;;;13.83;80.77;100468.55;1680981;85;21080;-62
2023/06/11 08:05:21;;;;;;;2.77;1.55;;;;;;;13.80;80.84;100487.73;1680708;85;21100;-62
2023/06/11 08:07:50;;;;;;;2.62;1.50;;;;;;;13.79;80.62;100471.43;1680792;85;21092;-63
2023/06/11 08:10:20;;;;;;;2.42;1.40;;;;;;;13.77;81.02;100466.67;1680782;85;21495;-63
2023/06/11 08:12:51;;;;;;;3.60;1.70;;;;;;;13.78;80.80;100468.36;1670960;85;21040;-65
2023/06/11 08:15:21;;;;;;;4.20;1.60;;;;;;;13.75;80.88;100475.68;1604469;87;21099;-62
2023/06/11 08:17:50;;;;;;;3.60;2.10;;;;;;;13.74;80.89;100464.35;1639104;85;21091;-62
2023/06/11 08:20:20;;;;;;;4.30;2.10;;;;;;;13.73;81.27;100453.02;1628785;87;21078;-65
2023/06/11 08:22:48;;;;;;;3.45;1.80;;;;;;;13.88;84.16;100462.70;1637565;87;21677;-64
2023/06/11 08:25:18;;;;;;;3.22;1.65;;;;;;;14.12;84.42;100461.12;1624485;87;21095;-64
2023/06/11 08:27:48;;;;;;;3.55;1.70;;;;;;;14.23;81.19;100465.94;1625472;88;21095;-63
2023/06/11 08:30:17;;;;;;;2.25;1.40;;;;;;;14.18;78.31;100460.77;1628379;88;21052;-64
2023/06/11 08:32:45;;;;;;;4.35;1.52;;;;;;;14.07;78.26;100456.80;1633274;86;21158;-64
2023/06/11 08:35:15;;;;;;;3.17;1.40;;;;;;;14.02;78.12;100466.25;1637966;87;21246;-63
2023/06/11 08:37:43;;;;;;;2.08;1.40;;;;;;;13.98;78.26;100460.86;1639405;87;21088;-62
2023/06/11 08:40:13;;;;;;;3.98;1.37;;;;;;;13.94;78.35;100451.34;1639401;87;21075;-62
2023/06/11 08:42:42;;;;;;;2.60;1.40;;;;;;;13.93;78.42;100452.41;1639249;87;21068;-62
2023/06/11 08:45:11;;;;;;;3.02;1.62;;;;;;;13.95;78.34;100448.91;1639445;87;21052;-64
2023/06/11 08:47:40;;;;;;;2.80;1.40;;;;;;;14.00;77.98;100447.72;1616872;87;21660;-61
2023/06/11 08:50:09;;;;;;;3.10;1.50;;;;;;;14.05;78.03;100447.91;1609254;87;21155;-63
2023/06/11 08:52:38;;;;;;;2.45;1.30;;;;;;;14.16;77.54;100449.97;1647925;85;21094;-63
2023/06/11 08:55:07;;;;;;;5.15;1.60;;;;;;;14.25;77.29;100450.55;1660440;85;21040;-65
2023/06/11 08:57:36;;;;;;;4.80;1.45;;;;;;;14.33;77.42;100442.59;1669790;86;21063;-64
2023/06/11 09:00:09;;;;;;;2.95;1.50;;;;;;;14.44;77.33;100446.05;1670053;86;21043;-62
2023/06/11 09:02:40;;;;;;;2.42;1.40;;;;;;;14.54;76.60;100440.89;1670127;86;21036;-63
2023/06/11 09:05:10;;;;;;;2.50;1.60;;;;;;;14.58;76.37;100442.14;1669841;86;21184;-62
2023/06/11 09:07:50;;;;;;;4.25;1.60;;;;;;;14.63;75.89;100442.84;1670030;86;21075;-63
2023/06/11 09:10:22;;;;;;;1.90;1.40;;;;;;;14.61;75.95;100444.45;1669960;86;21036;-63
2023/06/11 09:12:55;;;;;;;4.00;1.57;;;;;;;14.65;76.69;100445.70;1669713;86;21088;-64
2023/06/11 09:15:25;;;;;;;3.33;1.20;;;;;;;14.71;76.18;100448.94;1670039;86;21103;-62
2023/06/11 09:17:54;;;;;;;2.83;1.47;;;;;;;14.71;75.15;100460.50;1668424;84;21040;-63
2023/06/11 09:20:23;;;;;;;2.15;1.50;;;;;;;14.63;75.17;100456.10;1667796;86;21048;-63
2023/06/11 09:22:54;;;;;;;4.25;1.55;;;;;;;14.59;75.78;100458.46;1667754;86;21099;-66
2023/06/11 09:25:22;;;;;;;2.20;1.40;;;;;;;14.61;75.47;100473.94;1673627;85;21083;-62
2023/06/11 09:27:51;;;;;;;4.30;1.50;;;;;;;14.55;75.04;100458.59;1687881;85;21195;-63
2023/06/11 09:30:20;;;;;;;2.85;1.57;;;;;;;14.50;75.47;100456.20;1690894;84;21063;-62
2023/06/11 09:32:50;;;;;;;2.20;1.30;;;;;;;14.47;75.96;100453.88;1623426;88;21106;-62
2023/06/11 09:35:20;;;;;;;5.78;1.60;;;;;;;14.43;75.83;100449.34;1621827;88;21612;-63
2023/06/11 09:37:51;;;;;;;6.30;1.30;;;;;;;14.36;75.80;100445.75;1615154;89;21130;-62
2023/06/11 09:40:23;;;;;;;2.10;1.40;;;;;;;14.34;76.37;100449.27;1615513;89;21086;-63
2023/06/11 09:42:51;;;;;;;3.17;1.57;;;;;;;14.37;76.50;100456.24;1615317;89;21107;-63
2023/06/11 09:45:21;;;;;;;1.60;1.37;;;;;;;14.29;75.89;100459.55;1615414;89;21519;-63
2023/06/11 09:47:51;;;;;;;3.92;1.67;;;;;;;14.24;76.24;100472.30;1615184;88;21078;-64
2023/06/11 09:50:21;;;;;;;3.58;1.22;;;;;;;14.19;76.23;100467.44;1633443;84;21440;-64
2023/06/11 09:52:50;;;;;;;2.22;1.52;;;;;;;14.16;76.81;100463.75;1692778;85;21062;-64
2023/06/11 09:55:21;;;;;;;1.70;1.30;;;;;;;14.20;77.18;100462.77;1690013;85;21440;-62
2023/06/11 09:57:49;;;;;;;3.20;1.40;;;;;;;14.25;77.07;100461.58;1691727;85;21086;-63
2023/06/11 10:00:18;;;;;;;2.58;1.35;;;;;;;14.28;77.00;100465.27;1688886;84;21055;-62
2023/06/11 10:02:48;;;;;;;1.95;1.42;;;;;;;14.31;76.68;100453.84;1690620;84;21082;-63
2023/06/11 10:05:17;;;;;;;5.90;2.10;;;;;;;14.32;76.43;100472.06;1689152;84;21123;-63
2023/06/11 10:08:00;;;;;;;4.10;1.60;;;;;;;14.29;76.38;100466.97;1685389;84;21039;-62
2023/06/11 10:10:30;;;;;;;2.45;1.50;;;;;;;14.27;76.20;100467.19;1690137;85;21067;-62
2023/06/11 10:12:58;;;;;;;3.98;1.55;;;;;;;14.28;76.42;100463.36;1680472;85;21039;-62
2023/06/11 10:15:27;;;;;;;5.42;1.30;;;;;;;14.29;76.37;100470.56;1688502;84;21071;-63
2023/06/11 10:17:55;;;;;;;2.58;1.40;;;;;;;14.30;76.32;100475.55;1654431;85;21581;-64
2023/06/11 10:20:35;;;;;;;1.57;1.12;;;;;;;14.28;75.34;100471.63;1694531;85;21050;-63
2023/06/11 10:23:10;;;;;;;1.60;1.20;;;;;;;14.24;75.93;100470.38;1689804;85;21027;-63
2023/06/11 10:25:40;;;;;;;1.67;1.20;;;;;;;14.23;75.80;100494.87;1671896;85;21044;-62
2023/06/11 10:28:09;;;;;;;3.22;1.37;;;;;;;14.17;75.50;100489.39;1653831;86;21071;-63
2023/06/11 10:30:39;;;;;;;3.47;1.27;;;;;;;14.11;75.32;100492.49;1622657;88;21055;-62
2023/06/11 10:33:07;;;;;;;2.08;1.30;;;;;;;14.07;75.74;100484.88;1653159;86;21099;-63
2023/06/11 10:35:36;;;;;;;3.12;1.32;;;;;;;14.05;75.65;100497.50;1622668;88;21062;-63
2023/06/11 10:38:07;;;;;;;4.80;1.32;;;;;;;14.08;75.75;100492.08;1623400;87;21101;-63
2023/06/11 10:40:37;;;;;;;5.55;1.32;;;;;;;14.07;75.58;100494.00;1624710;86;21212;-62
2023/06/11 10:43:20;;;;;;;2.83;1.30;;;;;;;14.06;75.56;100494.21;1652356;87;21115;-62
2023/06/11 10:46:11;;;;;;;3.25;1.25;;;;;;;14.08;75.61;100495.69;1654205;86;21444;-65
2023/06/11 10:48:51;;;;;;;2.95;1.30;;;;;;;14.08;75.31;100501.73;1657654;86;21115;-62
2023/06/11 10:51:21;;;;;;;3.85;1.55;;;;;;;14.10;75.39;100492.17;1657910;86;21130;-63
2023/06/11 10:53:58;;;;;;;2.40;1.47;;;;;;;14.10;75.07;100505.11;1656509;86;21075;-63
2023/06/11 10:56:26;;;;;;;2.17;1.15;;;;;;;14.04;74.67;100500.47;1624166;87;21548;-62
2023/06/11 10:58:55;;;;;;;4.95;1.62;;;;;;;13.95;75.18;100502.63;1654503;86;21139;-64
2023/06/11 11:01:24;;;;;;;2.52;1.35;;;;;;;13.98;75.60;100502.19;1624023;87;21051;-63
2023/06/11 11:03:53;;;;;;;2.15;1.62;;;;;;;14.03;75.56;100495.49;1624500;88;21102;-64
2023/06/11 11:06:28;;;;;;;1.98;1.32;;;;;;;14.06;75.09;100502.48;1654120;86;21111;-64
2023/06/11 11:08:56;;;;;;;3.95;1.80;;;;;;;13.98;74.38;100498.06;1621919;88;21482;-64
2023/06/11 11:11:26;;;;;;;3.50;1.98;;;;;;;13.91;74.59;100492.57;1622075;88;21109;-64
2023/06/11 11:13:58;;;;;;;2.87;1.80;;;;;;;13.82;74.10;100518.66;1652880;87;21040;-63
2023/06/11 11:16:28;;;;;;;4.58;1.80;;;;;;;13.75;74.36;100498.56;1641323;86;21083;-62
2023/06/11 11:18:57;;;;;;;2.40;1.50;;;;;;;13.72;75.00;100500.36;1643477;87;21084;-65
2023/06/11 11:21:29;;;;;;;3.02;1.80;;;;;;;13.75;74.82;100510.95;1657976;85;21071;-64
2023/06/11 11:23:57;;;;;;;3.77;2.22;;;;;;;13.77;74.84;100510.73;1656596;85;21039;-63
2023/06/11 11:26:27;;;;;;;2.50;1.52;;;;;;;13.76;74.66;100507.13;1639558;87;21118;-62
2023/06/11 11:28:55;;;;;;;4.75;2.27;;;;;;;13.75;74.90;100510.95;1658524;86;21042;-63
2023/06/11 11:31:24;;;;;;;3.60;1.60;;;;;;;13.77;75.07;100509.36;1684998;85;21075;-63
2023/06/11 11:33:53;;;;;;;5.08;1.90;;;;;;;13.77;74.38;100513.48;1692785;84;21078;-64
2023/06/11 11:36:22;;;;;;;4.22;1.82;;;;;;;13.74;74.72;100512.55;1685864;85;21070;-63